sensor_id;sensor_type;location;lat;lon;timestamp;pressure;altitude;pressure_sealevel;temperature;humidity
32452;BME280;45528;52.102;5.242;2023-02-04T00:01:37;102858.0;;;15.3;53.05
32452;BME280;45528;52.102;5.242;2023-02-04T00:03:14;102858.0;;;15.29;53.1
32452;BME280;45528;52.102;5.242;2023-02-04T00:04:50;102858.0;;;15.31;53.04
32452;BME280;45528;52.102;5.242;2023-02-04T00:06:26;102863.00000000001;;;15.21;52.94
32452;BME280;45528;52.102;5.242;2023-02-04T00:09:40;102867.0;;;15.02;53.41
32452;BME280;45528;52.102;5.242;2023-02-04T00:11:16;102872.0;;;15.26;52.9
32452;BME280;45528;52.102;5.242;2023-02-04T00:12:52;102870.0;;;15.24;52.84
32452;BME280;45528;52.102;5.242;2023-02-04T00:16:05;102872.0;;;15.01;53.13
32452;BME280;45528;52.102;5.242;2023-02-04T00:17:41;102865.00000000001;;;14.88;53.79
32452;BME280;45528;52.102;5.242;2023-02-04T00:19:17;102871.0;;;15.13;53.35
32452;BME280;45528;52.102;5.242;2023-02-04T00:22:30;102872.0;;;15.19;53.16
32452;BME280;45528;52.102;5.242;2023-02-04T00:24:06;102879.0;;;15.02;53.43
32452;BME280;45528;52.102;5.242;2023-02-04T00:25:42;102880.0;;;14.97;53.91
32452;BME280;45528;52.102;5.242;2023-02-04T00:27:18;102881.0;;;15.12;53.53
32452;BME280;45528;52.102;5.242;2023-02-04T00:30:31;102883.0;;;15.03;53.85
32452;BME280;45528;52.102;5.242;2023-02-04T00:32:08;102888.00000000001;;;14.92;54.15
32452;BME280;45528;52.102;5.242;2023-02-04T00:33:44;102884.99999999999;;;15.0;53.89
32452;BME280;45528;52.102;5.242;2023-02-04T00:36:57;102882.0;;;14.81;54.52
32452;BME280;45528;52.102;5.242;2023-02-04T00:38:33;102883.99999999999;;;14.82;54.33
32452;BME280;45528;52.102;5.242;2023-02-04T00:40:11;102883.99999999999;;;14.83;54.44
32452;BME280;45528;52.102;5.242;2023-02-04T00:43:23;102886.99999999999;;;14.74;54.67
32452;BME280;45528;52.102;5.242;2023-02-04T00:44:59;102892.0;;;14.73;54.79
32452;BME280;45528;52.102;5.242;2023-02-04T00:46:35;102895.0;;;14.74;54.8
32452;BME280;45528;52.102;5.242;2023-02-04T00:48:11;102901.0;;;14.69;55.04
32452;BME280;45528;52.102;5.242;2023-02-04T00:51:24;102906.0;;;14.45;55.86
32452;BME280;45528;52.102;5.242;2023-02-04T00:53:01;102908.99999999999;;;14.58;55.47
32452;BME280;45528;52.102;5.242;2023-02-04T00:54:37;102908.99999999999;;;14.58;55.51
32452;BME280;45528;52.102;5.242;2023-02-04T00:57:50;102907.0;;;14.68;55.23
32452;BME280;45528;52.102;5.242;2023-02-04T00:59:26;102919.0;;;14.45;55.87
32452;BME280;45528;52.102;5.242;2023-02-04T01:01:03;102913.00000000001;;;14.68;55.4
32452;BME280;45528;52.102;5.242;2023-02-04T01:04:16;102911.99999999999;;;14.69;55.29
32452;BME280;45528;52.102;5.242;2023-02-04T01:05:53;102913.00000000001;;;14.67;55.68
32452;BME280;45528;52.102;5.242;2023-02-04T01:07:29;102914.00000000001;;;14.62;55.84
32452;BME280;45528;52.102;5.242;2023-02-04T01:09:05;102908.99999999999;;;14.6;55.85
32452;BME280;45528;52.102;5.242;2023-02-04T01:12:18;102917.0;;;14.32;56.85
32452;BME280;45528;52.102;5.242;2023-02-04T01:13:54;102922.0;;;14.5;56.34
32452;BME280;45528;52.102;5.242;2023-02-04T01:15:30;102927.0;;;14.47;56.74
32452;BME280;45528;52.102;5.242;2023-02-04T01:18:42;102929.0;;;14.54;56.47
32452;BME280;45528;52.102;5.242;2023-02-04T01:20:19;102936.99999999999;;;14.49;56.72
32452;BME280;45528;52.102;5.242;2023-02-04T01:21:55;102939.00000000001;;;14.51;56.53
32452;BME280;45528;52.102;5.242;2023-02-04T01:25:08;102938.00000000001;;;14.49;56.64
32452;BME280;45528;52.102;5.242;2023-02-04T01:26:44;102940.00000000001;;;14.48;56.71
32452;BME280;45528;52.102;5.242;2023-02-04T01:28:20;102945.0;;;14.62;56.39
32452;BME280;45528;52.102;5.242;2023-02-04T01:31:33;102943.0;;;14.59;56.46
32452;BME280;45528;52.102;5.242;2023-02-04T01:33:10;102946.0;;;14.63;56.28
32452;BME280;45528;52.102;5.242;2023-02-04T01:34:46;102946.0;;;14.54;56.63
32452;BME280;45528;52.102;5.242;2023-02-04T01:36:22;102947.0;;;14.42;57.39
32452;BME280;45528;52.102;5.242;2023-02-04T01:39:35;102954.0;;;14.64;56.75
32452;BME280;45528;52.102;5.242;2023-02-04T01:41:12;102958.0;;;14.49;56.88
32452;BME280;45528;52.102;5.242;2023-02-04T01:42:49;102964.00000000001;;;14.56;56.87
32452;BME280;45528;52.102;5.242;2023-02-04T01:46:04;102965.00000000001;;;14.56;56.96
32452;BME280;45528;52.102;5.242;2023-02-04T01:47:41;102970.0;;;14.54;57.06
32452;BME280;45528;52.102;5.242;2023-02-04T01:49:19;102970.0;;;14.39;57.5
32452;BME280;45528;52.102;5.242;2023-02-04T01:52:41;102971.0;;;14.47;57.34
32452;BME280;45528;52.102;5.242;2023-02-04T01:54:20;102972.0;;;14.42;57.6
32452;BME280;45528;52.102;5.242;2023-02-04T01:55:57;102972.0;;;14.39;57.61
32452;BME280;45528;52.102;5.242;2023-02-04T01:57:35;102972.0;;;14.46;57.59
32452;BME280;45528;52.102;5.242;2023-02-04T02:00:50;102975.0;;;14.49;57.48
32452;BME280;45528;52.102;5.242;2023-02-04T02:02:44;102976.0;;;14.45;57.69
32452;BME280;45528;52.102;5.242;2023-02-04T02:04:27;102978.0;;;14.31;58.25
32452;BME280;45528;52.102;5.242;2023-02-04T02:06:07;102975.0;;;14.32;58.22
32452;BME280;45528;52.102;5.242;2023-02-04T02:07:45;102983.0;;;14.37;57.88
32452;BME280;45528;52.102;5.242;2023-02-04T02:10:58;102984.99999999999;;;14.43;57.86
32452;BME280;45528;52.102;5.242;2023-02-04T02:12:34;102986.99999999999;;;14.46;57.75
32452;BME280;45528;52.102;5.242;2023-02-04T02:14:11;102986.99999999999;;;14.44;57.87
32452;BME280;45528;52.102;5.242;2023-02-04T02:17:24;102983.99999999999;;;14.43;57.83
32452;BME280;45528;52.102;5.242;2023-02-04T02:19:01;102989.00000000001;;;14.42;58.0
32452;BME280;45528;52.102;5.242;2023-02-04T02:20:38;102989.00000000001;;;14.39;58.04
32452;BME280;45528;52.102;5.242;2023-02-04T02:22:22;102983.99999999999;;;14.27;58.38
32452;BME280;45528;52.102;5.242;2023-02-04T02:26:01;102983.99999999999;;;14.38;58.16
32452;BME280;45528;52.102;5.242;2023-02-04T02:27:37;102983.99999999999;;;14.17;58.67
32452;BME280;45528;52.102;5.242;2023-02-04T02:29:14;102992.0;;;14.4;58.24
32452;BME280;45528;52.102;5.242;2023-02-04T02:30:50;102990.00000000001;;;14.32;58.47
32452;BME280;45528;52.102;5.242;2023-02-04T02:34:03;102988.00000000001;;;14.38;58.08
32452;BME280;45528;52.102;5.242;2023-02-04T02:35:43;102989.00000000001;;;14.31;58.43
32452;BME280;45528;52.102;5.242;2023-02-04T02:37:21;102992.0;;;14.43;58.07
32452;BME280;45528;52.102;5.242;2023-02-04T02:40:35;102996.0;;;14.38;58.18
32452;BME280;45528;52.102;5.242;2023-02-04T02:42:14;102994.0;;;14.3;58.5
32452;BME280;45528;52.102;5.242;2023-02-04T02:43:51;102996.0;;;14.24;58.55
32452;BME280;45528;52.102;5.242;2023-02-04T02:45:30;102997.0;;;14.31;58.54
32452;BME280;45528;52.102;5.242;2023-02-04T02:48:49;102993.0;;;14.37;58.16
32452;BME280;45528;52.102;5.242;2023-02-04T02:50:27;102991.00000000001;;;14.3;58.46
32452;BME280;45528;52.102;5.242;2023-02-04T02:52:04;102992.0;;;14.34;58.27
32452;BME280;45528;52.102;5.242;2023-02-04T02:55:18;102991.00000000001;;;14.28;58.36
32452;BME280;45528;52.102;5.242;2023-02-04T02:56:56;102994.0;;;14.29;58.35
32452;BME280;45528;52.102;5.242;2023-02-04T02:58:34;103001.0;;;14.3;58.45
32452;BME280;45528;52.102;5.242;2023-02-04T03:00:13;103001.0;;;14.28;58.5
32452;BME280;45528;52.102;5.242;2023-02-04T03:03:34;103002.0;;;14.3;58.43
32452;BME280;45528;52.102;5.242;2023-02-04T03:05:13;103001.0;;;14.23;58.65
32452;BME280;45528;52.102;5.242;2023-02-04T03:06:49;102998.0;;;14.24;58.41
32452;BME280;45528;52.102;5.242;2023-02-04T03:08:26;103004.0;;;14.29;58.17
32452;BME280;45528;52.102;5.242;2023-02-04T03:11:40;103006.0;;;14.25;58.27
32452;BME280;45528;52.102;5.242;2023-02-04T03:13:17;103004.0;;;14.13;58.56
32452;BME280;45528;52.102;5.242;2023-02-04T03:14:54;103001.0;;;14.08;58.69
32452;BME280;45528;52.102;5.242;2023-02-04T03:18:10;102997.0;;;14.06;58.8
32452;BME280;45528;52.102;5.242;2023-02-04T03:19:48;102999.0;;;14.05;58.87
32452;BME280;45528;52.102;5.242;2023-02-04T03:21:24;102998.0;;;14.04;58.89
32452;BME280;45528;52.102;5.242;2023-02-04T03:23:00;102995.0;;;14.01;58.88
32452;BME280;45528;52.102;5.242;2023-02-04T03:26:14;102996.0;;;14.01;58.82
32452;BME280;45528;52.102;5.242;2023-02-04T03:27:50;102993.0;;;13.88;59.1
32452;BME280;45528;52.102;5.242;2023-02-04T03:29:27;102993.0;;;13.83;59.04
32452;BME280;45528;52.102;5.242;2023-02-04T03:32:40;102993.0;;;13.78;59.2
32452;BME280;45528;52.102;5.242;2023-02-04T03:34:16;102996.0;;;13.7;59.57
32452;BME280;45528;52.102;5.242;2023-02-04T03:35:53;102992.0;;;13.73;59.35
32452;BME280;45528;52.102;5.242;2023-02-04T03:39:06;102996.0;;;13.69;59.5
32452;BME280;45528;52.102;5.242;2023-02-04T03:40:44;103000.0;;;13.72;59.33
32452;BME280;45528;52.102;5.242;2023-02-04T03:42:20;102999.0;;;13.74;59.09
32452;BME280;45528;52.102;5.242;2023-02-04T03:43:56;102997.0;;;13.65;59.11
32452;BME280;45528;52.102;5.242;2023-02-04T03:47:09;103000.0;;;13.6;59.17
32452;BME280;45528;52.102;5.242;2023-02-04T03:48:45;103004.0;;;13.5;59.16
32452;BME280;45528;52.102;5.242;2023-02-04T03:50:21;103009.99999999999;;;13.38;59.35
32452;BME280;45528;52.102;5.242;2023-02-04T03:53:34;103017.0;;;13.28;59.67
32452;BME280;45528;52.102;5.242;2023-02-04T03:55:10;103025.0;;;13.3;59.65
32452;BME280;45528;52.102;5.242;2023-02-04T03:56:46;103019.0;;;13.2;59.66
32452;BME280;45528;52.102;5.242;2023-02-04T03:59:58;103017.0;;;13.11;59.56
32452;BME280;45528;52.102;5.242;2023-02-04T04:01:34;103019.0;;;13.1;59.85
32452;BME280;45528;52.102;5.242;2023-02-04T04:03:10;103016.00000000001;;;13.09;59.97
32452;BME280;45528;52.102;5.242;2023-02-04T04:06:23;103014.00000000001;;;13.01;59.86
32452;BME280;45528;52.102;5.242;2023-02-04T04:08:00;103020.0;;;12.96;59.84
32452;BME280;45528;52.102;5.242;2023-02-04T04:09:36;103023.0;;;12.93;59.74
32452;BME280;45528;52.102;5.242;2023-02-04T04:11:13;103023.0;;;12.89;59.64
32452;BME280;45528;52.102;5.242;2023-02-04T04:14:26;103018.0;;;12.73;59.77
32452;BME280;45528;52.102;5.242;2023-02-04T04:16:03;103016.00000000001;;;12.65;60.09
32452;BME280;45528;52.102;5.242;2023-02-04T04:17:39;103016.00000000001;;;12.61;60.17
32452;BME280;45528;52.102;5.242;2023-02-04T04:20:51;103018.0;;;12.58;60.38
32452;BME280;45528;52.102;5.242;2023-02-04T04:22:27;103018.0;;;12.54;60.35
32452;BME280;45528;52.102;5.242;2023-02-04T04:24:04;103017.0;;;12.54;60.4
32452;BME280;45528;52.102;5.242;2023-02-04T04:27:17;103023.0;;;12.58;60.26
32452;BME280;45528;52.102;5.242;2023-02-04T04:28:53;103026.0;;;12.61;60.22
32452;BME280;45528;52.102;5.242;2023-02-04T04:30:29;103027.0;;;12.64;59.96
32452;BME280;45528;52.102;5.242;2023-02-04T04:32:05;103031.0;;;12.52;60.05
32452;BME280;45528;52.102;5.242;2023-02-04T04:35:18;103028.0;;;12.52;60.24
32452;BME280;45528;52.102;5.242;2023-02-04T04:36:54;103031.0;;;12.5;60.27
32452;BME280;45528;52.102;5.242;2023-02-04T04:38:30;103030.0;;;12.58;60.24
32452;BME280;45528;52.102;5.242;2023-02-04T04:41:47;103028.0;;;12.55;60.04
32452;BME280;45528;52.102;5.242;2023-02-04T04:43:23;103033.0;;;12.54;60.14
32452;BME280;45528;52.102;5.242;2023-02-04T04:44:59;103040.00000000001;;;12.55;60.31
32452;BME280;45528;52.102;5.242;2023-02-04T04:48:11;103036.99999999999;;;12.61;60.0
32452;BME280;45528;52.102;5.242;2023-02-04T04:49:47;103039.00000000001;;;12.58;60.04
32452;BME280;45528;52.102;5.242;2023-02-04T04:51:24;103041.00000000001;;;12.53;60.02
32452;BME280;45528;52.102;5.242;2023-02-04T04:53:00;103034.99999999999;;;12.4;60.08
32452;BME280;45528;52.102;5.242;2023-02-04T04:56:12;103033.99999999999;;;12.35;60.42
32452;BME280;45528;52.102;5.242;2023-02-04T04:57:48;103027.0;;;12.41;60.44
32452;BME280;45528;52.102;5.242;2023-02-04T04:59:24;103032.0;;;12.43;60.28
32452;BME280;45528;52.102;5.242;2023-02-04T05:02:37;103028.0;;;12.36;60.48
32452;BME280;45528;52.102;5.242;2023-02-04T05:04:13;103023.0;;;12.36;60.69
32452;BME280;45528;52.102;5.242;2023-02-04T05:05:49;103030.0;;;12.44;60.57
32452;BME280;45528;52.102;5.242;2023-02-04T05:09:02;103033.99999999999;;;12.47;60.54
32452;BME280;45528;52.102;5.242;2023-02-04T05:10:39;103030.0;;;12.45;60.48
32452;BME280;45528;52.102;5.242;2023-02-04T05:12:17;103038.00000000001;;;12.46;60.64
32452;BME280;45528;52.102;5.242;2023-02-04T05:13:53;103033.0;;;12.49;60.71
32452;BME280;45528;52.102;5.242;2023-02-04T05:17:05;103039.00000000001;;;12.54;60.69
32452;BME280;45528;52.102;5.242;2023-02-04T05:18:42;103042.0;;;12.61;60.5
32452;BME280;45528;52.102;5.242;2023-02-04T05:20:19;103045.0;;;12.7;60.39
32452;BME280;45528;52.102;5.242;2023-02-04T05:23:33;103039.00000000001;;;12.72;60.3
32452;BME280;45528;52.102;5.242;2023-02-04T05:25:10;103040.00000000001;;;12.68;60.4
32452;BME280;45528;52.102;5.242;2023-02-04T05:26:46;103033.99999999999;;;12.64;60.6
32452;BME280;45528;52.102;5.242;2023-02-04T05:29:58;103039.00000000001;;;12.67;60.61
32452;BME280;45528;52.102;5.242;2023-02-04T05:31:35;103034.99999999999;;;12.66;60.69
32452;BME280;45528;52.102;5.242;2023-02-04T05:33:11;103039.00000000001;;;12.66;60.72
32452;BME280;45528;52.102;5.242;2023-02-04T05:36:23;103046.0;;;12.72;60.59
32452;BME280;45528;52.102;5.242;2023-02-04T05:37:59;103042.0;;;12.77;60.52
32452;BME280;45528;52.102;5.242;2023-02-04T05:39:35;103041.00000000001;;;12.77;60.56
32452;BME280;45528;52.102;5.242;2023-02-04T05:41:12;103042.0;;;12.79;60.66
32452;BME280;45528;52.102;5.242;2023-02-04T05:44:24;103039.00000000001;;;12.84;60.78
32452;BME280;45528;52.102;5.242;2023-02-04T05:46:00;103045.0;;;12.93;60.54
32452;BME280;45528;52.102;5.242;2023-02-04T05:47:38;103048.0;;;12.95;60.59
32452;BME280;45528;52.102;5.242;2023-02-04T05:50:51;103055.0;;;13.11;60.31
32452;BME280;45528;52.102;5.242;2023-02-04T05:52:27;103063.00000000001;;;13.16;60.0
32452;BME280;45528;52.102;5.242;2023-02-04T05:54:03;103064.00000000001;;;13.26;59.8
32452;BME280;45528;52.102;5.242;2023-02-04T05:57:15;103074.0;;;13.25;59.77
32452;BME280;45528;52.102;5.242;2023-02-04T05:58:52;103076.0;;;13.28;59.76
32452;BME280;45528;52.102;5.242;2023-02-04T06:00:28;103079.0;;;13.43;59.56
32452;BME280;45528;52.102;5.242;2023-02-04T06:02:04;103078.0;;;13.45;59.61
32452;BME280;45528;52.102;5.242;2023-02-04T06:05:18;103083.0;;;13.4;59.89
32452;BME280;45528;52.102;5.242;2023-02-04T06:06:54;103083.0;;;13.43;59.8
32452;BME280;45528;52.102;5.242;2023-02-04T06:08:31;103081.0;;;13.37;59.83
32452;BME280;45528;52.102;5.242;2023-02-04T06:11:45;103083.0;;;13.39;59.83
32452;BME280;45528;52.102;5.242;2023-02-04T06:13:21;103086.99999999999;;;13.41;59.8
32452;BME280;45528;52.102;5.242;2023-02-04T06:14:57;103088.00000000001;;;13.48;59.6
32452;BME280;45528;52.102;5.242;2023-02-04T06:18:10;103086.99999999999;;;13.27;59.65
32452;BME280;45528;52.102;5.242;2023-02-04T06:19:46;103095.0;;;13.16;59.94
32452;BME280;45528;52.102;5.242;2023-02-04T06:21:22;103095.0;;;13.12;60.1
32452;BME280;45528;52.102;5.242;2023-02-04T06:22:58;103102.0;;;13.09;60.13
32452;BME280;45528;52.102;5.242;2023-02-04T06:26:12;103109.99999999999;;;13.15;60.29
32452;BME280;45528;52.102;5.242;2023-02-04T06:27:49;103116.00000000001;;;13.29;60.01
32452;BME280;45528;52.102;5.242;2023-02-04T06:29:25;103119.0;;;13.17;60.0
32452;BME280;45528;52.102;5.242;2023-02-04T06:32:39;103120.0;;;13.11;60.1
32452;BME280;45528;52.102;5.242;2023-02-04T06:34:15;103128.0;;;13.06;60.26
32452;BME280;45528;52.102;5.242;2023-02-04T06:35:52;103133.0;;;13.11;60.16
32452;BME280;45528;52.102;5.242;2023-02-04T06:39:06;103132.0;;;13.06;60.19
32452;BME280;45528;52.102;5.242;2023-02-04T06:40:42;103128.0;;;13.05;60.27
32452;BME280;45528;52.102;5.242;2023-02-04T06:42:18;103129.0;;;13.05;60.4
32452;BME280;45528;52.102;5.242;2023-02-04T06:43:54;103140.00000000001;;;13.06;60.46
32452;BME280;45528;52.102;5.242;2023-02-04T06:47:06;103140.00000000001;;;13.04;60.36
32452;BME280;45528;52.102;5.242;2023-02-04T06:48:42;103143.0;;;13.05;60.46
32452;BME280;45528;52.102;5.242;2023-02-04T06:50:18;103148.0;;;13.07;60.28
32452;BME280;45528;52.102;5.242;2023-02-04T06:53:30;103149.0;;;13.05;60.43
32452;BME280;45528;52.102;5.242;2023-02-04T06:55:06;103150.0;;;13.08;60.5
32452;BME280;45528;52.102;5.242;2023-02-04T06:56:42;103150.0;;;13.05;60.54
32452;BME280;45528;52.102;5.242;2023-02-04T06:59:54;103154.0;;;13.04;60.62
32452;BME280;45528;52.102;5.242;2023-02-04T07:01:30;103157.0;;;13.05;60.68
32452;BME280;45528;52.102;5.242;2023-02-04T07:03:06;103158.99999999999;;;13.08;60.7
32452;BME280;45528;52.102;5.242;2023-02-04T07:06:18;103153.0;;;13.1;60.57
32452;BME280;45528;52.102;5.242;2023-02-04T07:07:54;103154.0;;;13.09;60.56
32452;BME280;45528;52.102;5.242;2023-02-04T07:09:31;103157.0;;;13.1;60.62
32452;BME280;45528;52.102;5.242;2023-02-04T07:11:06;103158.99999999999;;;13.1;60.51
32452;BME280;45528;52.102;5.242;2023-02-04T07:14:18;103163.00000000001;;;13.1;60.48
32452;BME280;45528;52.102;5.242;2023-02-04T07:15:54;103158.99999999999;;;13.09;60.6
32452;BME280;45528;52.102;5.242;2023-02-04T07:17:31;103161.99999999999;;;13.07;60.75
32452;BME280;45528;52.102;5.242;2023-02-04T07:20:43;103161.99999999999;;;13.09;60.74
32452;BME280;45528;52.102;5.242;2023-02-04T07:22:19;103158.99999999999;;;13.18;60.57
32452;BME280;45528;52.102;5.242;2023-02-04T07:23:55;103165.00000000001;;;13.36;60.41
32452;BME280;45528;52.102;5.242;2023-02-04T07:27:08;103161.99999999999;;;13.43;60.22
32452;BME280;45528;52.102;5.242;2023-02-04T07:28:44;103169.0;;;13.37;60.34
32452;BME280;45528;52.102;5.242;2023-02-04T07:30:20;103169.0;;;13.33;60.4
32452;BME280;45528;52.102;5.242;2023-02-04T07:33:31;103172.0;;;13.35;60.45
32452;BME280;45528;52.102;5.242;2023-02-04T07:35:08;103170.0;;;13.3;60.49
32452;BME280;45528;52.102;5.242;2023-02-04T07:36:45;103178.0;;;13.36;60.66
32452;BME280;45528;52.102;5.242;2023-02-04T07:38:22;103183.0;;;13.46;60.49
32452;BME280;45528;52.102;5.242;2023-02-04T07:41:35;103183.99999999999;;;13.49;60.45
32452;BME280;45528;52.102;5.242;2023-02-04T07:43:10;103184.99999999999;;;13.47;60.48
32452;BME280;45528;52.102;5.242;2023-02-04T07:44:46;103188.00000000001;;;13.49;60.45
32452;BME280;45528;52.102;5.242;2023-02-04T07:47:58;103194.0;;;13.49;60.44
32452;BME280;45528;52.102;5.242;2023-02-04T07:49:33;103191.00000000001;;;13.53;60.5
32452;BME280;45528;52.102;5.242;2023-02-04T07:51:09;103191.00000000001;;;13.55;60.35
32452;BME280;45528;52.102;5.242;2023-02-04T07:54:21;103198.0;;;13.55;60.46
32452;BME280;45528;52.102;5.242;2023-02-04T07:55:56;103196.0;;;13.6;60.34
32452;BME280;45528;52.102;5.242;2023-02-04T07:57:33;103201.0;;;13.6;60.35
32452;BME280;45528;52.102;5.242;2023-02-04T08:00:45;103200.0;;;13.69;60.37
32452;BME280;45528;52.102;5.242;2023-02-04T08:02:21;103204.0;;;13.66;60.42
32452;BME280;45528;52.102;5.242;2023-02-04T08:03:57;103206.0;;;13.66;60.42
32452;BME280;45528;52.102;5.242;2023-02-04T08:05:34;103207.0;;;13.69;60.44
32452;BME280;45528;52.102;5.242;2023-02-04T08:08:46;103216.00000000001;;;13.67;60.58
32452;BME280;45528;52.102;5.242;2023-02-04T08:10:22;103216.00000000001;;;13.64;60.75
32452;BME280;45528;52.102;5.242;2023-02-04T08:11:59;103215.00000000001;;;13.66;60.6
32452;BME280;45528;52.102;5.242;2023-02-04T08:15:12;103218.0;;;13.68;60.7
32452;BME280;45528;52.102;5.242;2023-02-04T08:16:48;103221.0;;;13.71;60.61
32452;BME280;45528;52.102;5.242;2023-02-04T08:18:24;103224.0;;;13.75;60.7
32452;BME280;45528;52.102;5.242;2023-02-04T08:21:36;103228.0;;;13.81;60.57
32452;BME280;45528;52.102;5.242;2023-02-04T08:23:12;103233.99999999999;;;13.85;60.47
32452;BME280;45528;52.102;5.242;2023-02-04T08:24:48;103236.99999999999;;;13.88;60.53
32452;BME280;45528;52.102;5.242;2023-02-04T08:26:24;103238.00000000001;;;13.9;60.46
32452;BME280;45528;52.102;5.242;2023-02-04T08:29:38;103242.0;;;14.05;60.49
32452;BME280;45528;52.102;5.242;2023-02-04T08:31:14;103240.00000000001;;;14.15;60.29
32452;BME280;45528;52.102;5.242;2023-02-04T08:32:50;103239.00000000001;;;14.23;59.88
32452;BME280;45528;52.102;5.242;2023-02-04T08:36:03;103242.0;;;14.2;60.07
32452;BME280;45528;52.102;5.242;2023-02-04T08:37:39;103243.0;;;14.23;60.06
32452;BME280;45528;52.102;5.242;2023-02-04T08:39:15;103247.0;;;14.32;59.91
32452;BME280;45528;52.102;5.242;2023-02-04T08:42:28;103248.0;;;14.31;59.92
32452;BME280;45528;52.102;5.242;2023-02-04T08:44:05;103247.0;;;14.38;59.92
32452;BME280;45528;52.102;5.242;2023-02-04T08:45:41;103252.0;;;14.52;59.75
32452;BME280;45528;52.102;5.242;2023-02-04T08:47:17;103251.0;;;14.54;59.52
32452;BME280;45528;52.102;5.242;2023-02-04T08:50:31;103256.0;;;14.5;59.46
32452;BME280;45528;52.102;5.242;2023-02-04T08:52:08;103254.0;;;14.52;59.5
32452;BME280;45528;52.102;5.242;2023-02-04T08:53:44;103258.99999999999;;;14.57;59.22
32452;BME280;45528;52.102;5.242;2023-02-04T08:56:57;103263.00000000001;;;14.76;59.0
32452;BME280;45528;52.102;5.242;2023-02-04T08:58:33;103264.00000000001;;;14.69;58.9
32452;BME280;45528;52.102;5.242;2023-02-04T09:00:11;103269.0;;;14.77;58.96
32452;BME280;45528;52.102;5.242;2023-02-04T09:03:25;103266.00000000001;;;14.81;58.66
32452;BME280;45528;52.102;5.242;2023-02-04T09:05:01;103266.00000000001;;;14.91;58.53
32452;BME280;45528;52.102;5.242;2023-02-04T09:06:37;103267.0;;;15.05;58.23
32452;BME280;45528;52.102;5.242;2023-02-04T09:08:14;103271.0;;;15.06;58.1
32452;BME280;45528;52.102;5.242;2023-02-04T09:11:26;103272.0;;;15.03;58.19
32452;BME280;45528;52.102;5.242;2023-02-04T09:13:03;103268.0;;;15.12;58.18
32452;BME280;45528;52.102;5.242;2023-02-04T09:14:39;103266.00000000001;;;15.14;58.2
32452;BME280;45528;52.102;5.242;2023-02-04T09:18:00;103266.00000000001;;;15.22;57.78
32452;BME280;45528;52.102;5.242;2023-02-04T09:19:36;103264.00000000001;;;15.25;57.78
32452;BME280;45528;52.102;5.242;2023-02-04T09:21:13;103269.0;;;15.26;57.72
32452;BME280;45528;52.102;5.242;2023-02-04T09:24:25;103267.0;;;15.2;57.91
32452;BME280;45528;52.102;5.242;2023-02-04T09:26:03;103269.0;;;15.16;57.42
32452;BME280;45528;52.102;5.242;2023-02-04T09:27:40;103268.0;;;15.31;57.71
32452;BME280;45528;52.102;5.242;2023-02-04T09:29:16;103270.0;;;15.53;57.53
32452;BME280;45528;52.102;5.242;2023-02-04T09:32:28;103276.0;;;15.7;57.05
32452;BME280;45528;52.102;5.242;2023-02-04T09:34:05;103278.0;;;15.72;56.19
32452;BME280;45528;52.102;5.242;2023-02-04T09:35:41;103276.0;;;15.74;56.25
32452;BME280;45528;52.102;5.242;2023-02-04T09:38:53;103273.0;;;15.73;55.69
32452;BME280;45528;52.102;5.242;2023-02-04T09:40:32;103272.0;;;15.51;56.25
32452;BME280;45528;52.102;5.242;2023-02-04T09:42:12;103270.0;;;15.34;56.28
32452;BME280;45528;52.102;5.242;2023-02-04T09:43:50;103275.0;;;15.7;55.53
32452;BME280;45528;52.102;5.242;2023-02-04T09:47:09;103277.0;;;15.93;55.42
32452;BME280;45528;52.102;5.242;2023-02-04T09:48:48;103282.0;;;15.84;53.87
32452;BME280;45528;52.102;5.242;2023-02-04T09:50:27;103283.99999999999;;;15.94;54.67
32452;BME280;45528;52.102;5.242;2023-02-04T09:53:46;103288.00000000001;;;16.09;54.93
32452;BME280;45528;52.102;5.242;2023-02-04T09:55:26;103290.00000000001;;;16.22;54.47
32452;BME280;45528;52.102;5.242;2023-02-04T09:57:13;103289.00000000001;;;16.43;52.88
32452;BME280;45528;52.102;5.242;2023-02-04T09:58:51;103291.00000000001;;;16.52;52.53
32452;BME280;45528;52.102;5.242;2023-02-04T10:02:17;103299.0;;;16.59;52.37
32452;BME280;45528;52.102;5.242;2023-02-04T10:03:59;103300.0;;;16.55;52.97
32452;BME280;45528;52.102;5.242;2023-02-04T10:05:37;103301.0;;;16.48;53.47
32452;BME280;45528;52.102;5.242;2023-02-04T10:07:16;103305.0;;;16.55;52.94
32452;BME280;45528;52.102;5.242;2023-02-04T10:08:54;103303.0;;;16.61;52.48
32452;BME280;45528;52.102;5.242;2023-02-04T10:12:08;103306.0;;;16.68;52.49
32452;BME280;45528;52.102;5.242;2023-02-04T10:13:46;103311.99999999999;;;16.52;52.26
32452;BME280;45528;52.102;5.242;2023-02-04T10:15:24;103308.0;;;16.73;51.39
32452;BME280;45528;52.102;5.242;2023-02-04T10:18:38;103313.00000000001;;;16.73;51.19
32452;BME280;45528;52.102;5.242;2023-02-04T10:20:16;103305.0;;;16.43;51.07
32452;BME280;45528;52.102;5.242;2023-02-04T10:21:54;103311.99999999999;;;16.86;50.44
32452;BME280;45528;52.102;5.242;2023-02-04T10:25:11;103316.00000000001;;;16.84;50.79
32452;BME280;45528;52.102;5.242;2023-02-04T10:26:48;103314.00000000001;;;16.81;51.6
32452;BME280;45528;52.102;5.242;2023-02-04T10:28:32;103316.00000000001;;;16.87;51.45
32452;BME280;45528;52.102;5.242;2023-02-04T10:30:17;103315.00000000001;;;16.89;50.84
32452;BME280;45528;52.102;5.242;2023-02-04T10:31:55;103319.0;;;17.02;50.62
32452;BME280;45528;52.102;5.242;2023-02-04T10:35:13;103311.99999999999;;;17.2;50.53
32452;BME280;45528;52.102;5.242;2023-02-04T10:36:52;103311.99999999999;;;17.04;50.83